sensor_id;sensor_type;location;lat;lon;timestamp;pressure;altitude;pressure_sealevel;temperature;humidity
73455;BME280;61690;51.824;6.306;2023-04-22T00:05:11;100786.84;;;18.39;46.71
73455;BME280;61690;51.824;6.306;2023-04-22T00:07:41;100789.69;;;18.36;47.00
73455;BME280;61690;51.824;6.306;2023-04-22T00:10:08;100784.50;;;18.35;46.75
73455;BME280;61690;51.824;6.306;2023-04-22T00:12:34;100792.53;;;18.33;47.00
73455;BME280;61690;51.824;6.306;2023-04-22T00:14:59;100784.50;;;18.35;46.73
73455;BME280;61690;51.824;6.306;2023-04-22T00:17:24;100781.78;;;18.36;46.94
73455;BME280;61690;51.824;6.306;2023-04-22T00:19:50;100783.69;;;18.34;46.63
73455;BME280;61690;51.824;6.306;2023-04-22T00:22:15;100780.31;;;18.32;46.92
73455;BME280;61690;51.824;6.306;2023-04-22T00:24:41;100776.09;;;18.30;46.96
73455;BME280;61690;51.824;6.306;2023-04-22T00:27:06;100767.22;;;18.31;46.99
73455;BME280;61690;51.824;6.306;2023-04-22T00:29:32;100763.44;;;18.35;47.08
73455;BME280;61690;51.824;6.306;2023-04-22T00:31:57;100763.84;;;18.29;47.12
73455;BME280;61690;51.824;6.306;2023-04-22T00:34:22;100762.72;;;18.33;46.24
73455;BME280;61690;51.824;6.306;2023-04-22T00:36:51;100754.38;;;18.26;47.02
73455;BME280;61690;51.824;6.306;2023-04-22T00:39:16;100751.44;;;18.31;46.87
73455;BME280;61690;51.824;6.306;2023-04-22T00:41:42;100756.06;;;18.27;46.45
73455;BME280;61690;51.824;6.306;2023-04-22T00:44:08;100750.59;;;18.30;46.92
73455;BME280;61690;51.824;6.306;2023-04-22T00:46:36;100752.91;;;18.22;46.95
73455;BME280;61690;51.824;6.306;2023-04-22T00:49:01;100754.56;;;18.23;46.89
73455;BME280;61690;51.824;6.306;2023-04-22T00:51:26;100752.69;;;18.25;46.72
73455;BME280;61690;51.824;6.306;2023-04-22T00:53:52;100744.59;;;18.28;46.58
73455;BME280;61690;51.824;6.306;2023-04-22T00:56:18;100747.63;;;18.22;46.88
73455;BME280;61690;51.824;6.306;2023-04-22T00:58:44;100755.13;;;18.28;46.98
73455;BME280;61690;51.824;6.306;2023-04-22T01:01:10;100752.91;;;18.22;46.56
73455;BME280;61690;51.824;6.306;2023-04-22T01:03:37;100747.63;;;18.22;46.50
73455;BME280;61690;51.824;6.306;2023-04-22T01:06:04;100744.25;;;18.20;46.59
73455;BME280;61690;51.824;6.306;2023-04-22T01:08:29;100745.09;;;18.20;46.52
73455;BME280;61690;51.824;6.306;2023-04-22T01:10:55;100738.78;;;18.23;46.44
73455;BME280;61690;51.824;6.306;2023-04-22T01:13:21;100740.69;;;18.21;46.87
73455;BME280;61690;51.824;6.306;2023-04-22T01:15:46;100739.09;;;18.18;46.65
73455;BME280;61690;51.824;6.306;2023-04-22T01:18:12;100742.75;;;18.16;46.52
73455;BME280;61690;51.824;6.306;2023-04-22T01:20:38;100742.75;;;18.16;46.88
73455;BME280;61690;51.824;6.306;2023-04-22T01:23:05;100734.66;;;18.19;46.48
73455;BME280;61690;51.824;6.306;2023-04-22T01:25:34;100734.84;;;18.16;46.88
73455;BME280;61690;51.824;6.306;2023-04-22T01:27:59;100734.03;;;18.15;46.46
73455;BME280;61690;51.824;6.306;2023-04-22T01:30:25;100730.75;;;18.12;46.94
73455;BME280;61690;51.824;6.306;2023-04-22T01:32:50;100737.31;;;18.19;46.42
73455;BME280;61690;51.824;6.306;2023-04-22T01:35:16;100735.38;;;18.08;46.25
73455;BME280;61690;51.824;6.306;2023-04-22T01:37:41;100731.72;;;18.11;46.47
73455;BME280;61690;51.824;6.306;2023-04-22T01:40:08;100737.81;;;18.11;46.83
73455;BME280;61690;51.824;6.306;2023-04-22T01:42:34;100732.53;;;18.11;46.43
73455;BME280;61690;51.824;6.306;2023-04-22T01:44:59;100729.06;;;18.11;46.63
73455;BME280;61690;51.824;6.306;2023-04-22T01:47:25;100733.00;;;18.18;47.02
73455;BME280;61690;51.824;6.306;2023-04-22T01:49:51;100730.75;;;18.12;46.62
73455;BME280;61690;51.824;6.306;2023-04-22T01:52:17;100734.66;;;18.19;46.31
73455;BME280;61690;51.824;6.306;2023-04-22T01:54:42;100735.06;;;18.13;46.46
73455;BME280;61690;51.824;6.306;2023-04-22T01:57:11;100731.50;;;18.14;46.63
73455;BME280;61690;51.824;6.306;2023-04-22T01:59:38;100727.78;;;18.03;46.40
73455;BME280;61690;51.824;6.306;2023-04-22T02:02:03;100730.97;;;18.09;46.41
73455;BME280;61690;51.824;6.306;2023-04-22T02:04:28;100732.22;;;18.03;46.91
73455;BME280;61690;51.824;6.306;2023-04-22T02:06:54;100733.03;;;18.03;46.87
73455;BME280;61690;51.824;6.306;2023-04-22T02:09:19;100734.53;;;18.08;46.61
73455;BME280;61690;51.824;6.306;2023-04-22T02:11:44;100738.97;;;18.07;46.57
73455;BME280;61690;51.824;6.306;2023-04-22T02:14:10;100739.16;;;18.04;46.82
73455;BME280;61690;51.824;6.306;2023-04-22T02:16:35;100732.00;;;18.06;46.48
73455;BME280;61690;51.824;6.306;2023-04-22T02:19:01;100737.75;;;17.98;46.65
73455;BME280;61690;51.824;6.306;2023-04-22T02:21:29;100731.56;;;17.99;46.79
73455;BME280;61690;51.824;6.306;2023-04-22T02:23:56;100728.84;;;18.01;46.83
73455;BME280;61690;51.824;6.306;2023-04-22T02:26:21;100729.91;;;18.11;46.23
73455;BME280;61690;51.824;6.306;2023-04-22T02:28:47;100725.88;;;18.06;46.44
73455;BME280;61690;51.824;6.306;2023-04-22T02:31:13;100719.16;;;18.01;46.37
73455;BME280;61690;51.824;6.306;2023-04-22T02:33:38;100718.22;;;18.02;46.68
73455;BME280;61690;51.824;6.306;2023-04-22T02:36:03;100719.06;;;18.03;46.80
73455;BME280;61690;51.824;6.306;2023-04-22T02:38:29;100729.50;;;18.05;46.72
73455;BME280;61690;51.824;6.306;2023-04-22T02:40:54;100735.25;;;17.97;46.60
73455;BME280;61690;51.824;6.306;2023-04-22T02:43:19;100725.47;;;17.99;46.74
73455;BME280;61690;51.824;6.306;2023-04-22T02:45:44;100721.88;;;18.00;46.37
73455;BME280;61690;51.824;6.306;2023-04-22T02:48:10;100720.31;;;17.97;46.44
73455;BME280;61690;51.824;6.306;2023-04-22T02:50:35;100715.13;;;17.96;46.75
73455;BME280;61690;51.824;6.306;2023-04-22T02:53:00;100723.34;;;17.91;46.62
73455;BME280;61690;51.824;6.306;2023-04-22T02:55:25;100718.69;;;17.95;46.71
73455;BME280;61690;51.824;6.306;2023-04-22T02:57:52;100712.69;;;17.93;46.44
73455;BME280;61690;51.824;6.306;2023-04-22T03:00:17;100714.38;;;17.94;46.36
73455;BME280;61690;51.824;6.306;2023-04-22T03:02:43;100705.44;;;17.96;46.26
73455;BME280;61690;51.824;6.306;2023-04-22T03:05:08;100697.94;;;17.90;46.53
73455;BME280;61690;51.824;6.306;2023-04-22T03:07:34;100698.13;;;17.87;46.67
73455;BME280;61690;51.824;6.306;2023-04-22T03:10:02;100694.00;;;17.83;46.99
73455;BME280;61690;51.824;6.306;2023-04-22T03:12:28;100688.72;;;17.83;46.51
73455;BME280;61690;51.824;6.306;2023-04-22T03:14:53;100686.09;;;17.83;46.64
73455;BME280;61690;51.824;6.306;2023-04-22T03:17:18;100693.25;;;17.81;46.80
73455;BME280;61690;51.824;6.306;2023-04-22T03:19:44;100688.00;;;17.81;46.72
73455;BME280;61690;51.824;6.306;2023-04-22T03:22:09;100687.25;;;17.79;46.79
73455;BME280;61690;51.824;6.306;2023-04-22T03:24:38;100690.53;;;17.82;46.55
73455;BME280;61690;51.824;6.306;2023-04-22T03:27:03;100690.84;;;17.78;47.05
73455;BME280;61690;51.824;6.306;2023-04-22T03:29:29;100681.75;;;17.69;46.90
73455;BME280;61690;51.824;6.306;2023-04-22T03:31:55;100679.13;;;17.69;46.94
73455;BME280;61690;51.824;6.306;2023-04-22T03:34:20;100683.00;;;17.63;47.07
73455;BME280;61690;51.824;6.306;2023-04-22T03:36:46;100675.66;;;17.69;46.90
73455;BME280;61690;51.824;6.306;2023-04-22T03:39:11;100667.22;;;17.63;47.01
73455;BME280;61690;51.824;6.306;2023-04-22T03:41:36;100668.91;;;17.64;46.95
73455;BME280;61690;51.824;6.306;2023-04-22T03:44:01;100677.94;;;17.60;47.24
73455;BME280;61690;51.824;6.306;2023-04-22T03:46:27;100671.63;;;17.63;47.05
73455;BME280;61690;51.824;6.306;2023-04-22T03:48:52;100671.91;;;17.58;47.18
73455;BME280;61690;51.824;6.306;2023-04-22T03:51:24;100674.53;;;17.58;47.00
73455;BME280;61690;51.824;6.306;2023-04-22T03:53:49;100662.91;;;17.62;47.10
73455;BME280;61690;51.824;6.306;2023-04-22T03:56:15;100670.34;;;17.56;47.32
73455;BME280;61690;51.824;6.306;2023-04-22T03:58:40;100659.81;;;17.56;46.86
73455;BME280;61690;51.824;6.306;2023-04-22T04:01:05;100662.34;;;17.57;47.03
73455;BME280;61690;51.824;6.306;2023-04-22T04:03:31;100655.38;;;17.56;47.30
73455;BME280;61690;51.824;6.306;2023-04-22T04:05:57;100656.44;;;17.54;47.11
73455;BME280;61690;51.824;6.306;2023-04-22T04:08:22;100650.13;;;17.56;46.89
73455;BME280;61690;51.824;6.306;2023-04-22T04:10:47;100648.47;;;17.55;47.38
73455;BME280;61690;51.824;6.306;2023-04-22T04:13:13;100651.00;;;17.57;47.26
73455;BME280;61690;51.824;6.306;2023-04-22T04:15:38;100643.19;;;17.55;46.96
73455;BME280;61690;51.824;6.306;2023-04-22T04:18:03;100641.50;;;17.54;47.05
73455;BME280;61690;51.824;6.306;2023-04-22T04:20:29;100644.13;;;17.54;47.34
73455;BME280;61690;51.824;6.306;2023-04-22T04:22:54;100647.63;;;17.55;47.53
73455;BME280;61690;51.824;6.306;2023-04-22T04:25:20;100640.75;;;17.52;47.30
73455;BME280;61690;51.824;6.306;2023-04-22T04:27:46;100644.88;;;17.56;46.98
73455;BME280;61690;51.824;6.306;2023-04-22T04:30:12;100641.81;;;17.50;47.23
73455;BME280;61690;51.824;6.306;2023-04-22T04:32:38;100648.56;;;17.54;46.88
73455;BME280;61690;51.824;6.306;2023-04-22T04:35:04;100640.84;;;17.51;47.21
73455;BME280;61690;51.824;6.306;2023-04-22T04:37:36;100632.13;;;17.50;47.03
73455;BME280;61690;51.824;6.306;2023-04-22T04:40:06;100626.13;;;17.48;47.12
73455;BME280;61690;51.824;6.306;2023-04-22T04:42:31;100634.84;;;17.49;47.01
73455;BME280;61690;51.824;6.306;2023-04-22T04:44:57;100628.00;;;17.46;47.37
73455;BME280;61690;51.824;6.306;2023-04-22T04:47:23;100627.09;;;17.47;47.15
73455;BME280;61690;51.824;6.306;2023-04-22T04:49:49;100631.59;;;17.45;46.89
73455;BME280;61690;51.824;6.306;2023-04-22T04:52:26;100621.69;;;17.49;47.01
73455;BME280;61690;51.824;6.306;2023-04-22T04:54:55;100624.47;;;17.47;46.98
73455;BME280;61690;51.824;6.306;2023-04-22T04:57:21;100627.19;;;17.46;46.95
73455;BME280;61690;51.824;6.306;2023-04-22T04:59:46;100620.22;;;17.44;46.94
73455;BME280;61690;51.824;6.306;2023-04-22T05:02:11;100628.00;;;17.46;46.86
73455;BME280;61690;51.824;6.306;2023-04-22T05:04:36;100623.59;;;17.47;47.27
73455;BME280;61690;51.824;6.306;2023-04-22T05:07:02;100624.56;;;17.58;46.70
73455;BME280;61690;51.824;6.306;2023-04-22T05:09:28;100619.44;;;17.70;46.86
73455;BME280;61690;51.824;6.306;2023-04-22T05:11:53;100624.59;;;17.86;46.37
73455;BME280;61690;51.824;6.306;2023-04-22T05:14:18;100624.41;;;18.01;45.71
73455;BME280;61690;51.824;6.306;2023-04-22T05:16:44;100636.63;;;18.15;45.91
73455;BME280;61690;51.824;6.306;2023-04-22T05:19:09;100631.56;;;18.25;45.23
73455;BME280;61690;51.824;6.306;2023-04-22T05:21:34;100628.31;;;18.34;45.27
73455;BME280;61690;51.824;6.306;2023-04-22T05:24:00;100632.22;;;18.41;44.87
73455;BME280;61690;51.824;6.306;2023-04-22T05:26:25;100628.22;;;18.49;44.88
73455;BME280;61690;51.824;6.306;2023-04-22T05:28:50;100633.88;;;18.55;44.60
73455;BME280;61690;51.824;6.306;2023-04-22T05:31:16;100626.53;;;18.60;44.92
73455;BME280;61690;51.824;6.306;2023-04-22T05:33:41;100626.09;;;18.67;44.50
73455;BME280;61690;51.824;6.306;2023-04-22T05:36:07;100630.91;;;18.73;44.83
73455;BME280;61690;51.824;6.306;2023-04-22T05:38:32;100632.38;;;18.77;44.60
73455;BME280;61690;51.824;6.306;2023-04-22T05:40:57;100628.50;;;18.83;44.73
73455;BME280;61690;51.824;6.306;2023-04-22T05:43:25;100634.41;;;18.86;44.28
73455;BME280;61690;51.824;6.306;2023-04-22T05:45:50;100629.66;;;18.91;44.17
73455;BME280;61690;51.824;6.306;2023-04-22T05:48:16;100632.94;;;18.95;44.38
73455;BME280;61690;51.824;6.306;2023-04-22T05:50:41;100632.69;;;18.98;44.23
73455;BME280;61690;51.824;6.306;2023-04-22T05:53:07;100635.84;;;19.03;44.03
73455;BME280;61690;51.824;6.306;2023-04-22T05:55:33;100629.41;;;19.07;44.24
73455;BME280;61690;51.824;6.306;2023-04-22T05:57:58;100633.59;;;19.10;43.86
73455;BME280;61690;51.824;6.306;2023-04-22T06:00:23;100630.13;;;19.09;43.91
73455;BME280;61690;51.824;6.306;2023-04-22T06:02:49;100625.69;;;19.10;44.08
73455;BME280;61690;51.824;6.306;2023-04-22T06:05:14;100627.50;;;19.09;43.83
73455;BME280;61690;51.824;6.306;2023-04-22T06:07:39;100640.69;;;19.09;44.05
73455;BME280;61690;51.824;6.306;2023-04-22T06:10:05;100636.59;;;19.05;43.86
73455;BME280;61690;51.824;6.306;2023-04-22T06:12:32;100631.31;;;19.05;44.15
73455;BME280;61690;51.824;6.306;2023-04-22T06:14:58;100621.69;;;19.04;44.41
73455;BME280;61690;51.824;6.306;2023-04-22T06:17:23;100625.41;;;19.02;44.25
73455;BME280;61690;51.824;6.306;2023-04-22T06:19:49;100635.22;;;18.99;44.27
73455;BME280;61690;51.824;6.306;2023-04-22T06:22:14;100635.31;;;18.98;44.46
73455;BME280;61690;51.824;6.306;2023-04-22T06:24:39;100633.66;;;18.97;44.13
73455;BME280;61690;51.824;6.306;2023-04-22T06:27:05;100634.84;;;18.93;44.21
73455;BME280;61690;51.824;6.306;2023-04-22T06:29:30;100635.78;;;18.92;44.57
73455;BME280;61690;51.824;6.306;2023-04-22T06:31:55;100635.78;;;18.92;44.71
73455;BME280;61690;51.824;6.306;2023-04-22T06:34:20;100636.84;;;18.89;44.52
73455;BME280;61690;51.824;6.306;2023-04-22T06:36:46;100629.03;;;18.88;44.38
73455;BME280;61690;51.824;6.306;2023-04-22T06:39:12;100627.22;;;18.88;44.45
73455;BME280;61690;51.824;6.306;2023-04-22T06:41:37;100629.88;;;18.88;44.60
73455;BME280;61690;51.824;6.306;2023-04-22T06:44:02;100622.31;;;18.84;44.78
73455;BME280;61690;51.824;6.306;2023-04-22T06:46:27;100614.59;;;18.80;45.00
73455;BME280;61690;51.824;6.306;2023-04-22T06:48:53;100609.41;;;18.79;45.06
73455;BME280;61690;51.824;6.306;2023-04-22T06:51:18;100611.19;;;18.78;45.16
73455;BME280;61690;51.824;6.306;2023-04-22T06:53:45;100610.47;;;18.76;45.17
73455;BME280;61690;51.824;6.306;2023-04-22T06:56:10;100601.72;;;18.76;45.28
73455;BME280;61690;51.824;6.306;2023-04-22T06:58:35;100601.84;;;18.74;44.71
73455;BME280;61690;51.824;6.306;2023-04-22T07:01:01;100585.41;;;18.71;45.04
73455;BME280;61690;51.824;6.306;2023-04-22T07:03:26;100592.22;;;18.73;44.94
73455;BME280;61690;51.824;6.306;2023-04-22T07:05:51;100586.47;;;18.68;44.92
73455;BME280;61690;51.824;6.306;2023-04-22T07:08:17;100585.72;;;18.66;45.20
73455;BME280;61690;51.824;6.306;2023-04-22T07:10:43;100586.22;;;18.71;45.57
73455;BME280;61690;51.824;6.306;2023-04-22T07:13:09;100588.03;;;18.71;46.17
73455;BME280;61690;51.824;6.306;2023-04-22T07:15:34;100586.66;;;18.65;46.05
73455;BME280;61690;51.824;6.306;2023-04-22T07:18:00;100596.13;;;18.68;45.78
73455;BME280;61690;51.824;6.306;2023-04-22T07:20:25;100600.19;;;18.60;46.35
73455;BME280;61690;51.824;6.306;2023-04-22T07:22:51;100600.28;;;18.59;46.04
73455;BME280;61690;51.824;6.306;2023-04-22T07:25:16;100598.47;;;18.59;45.67
73455;BME280;61690;51.824;6.306;2023-04-22T07:27:42;100591.75;;;18.55;46.01
73455;BME280;61690;51.824;6.306;2023-04-22T07:30:07;100591.00;;;18.53;46.06
73455;BME280;61690;51.824;6.306;2023-04-22T07:32:33;100585.00;;;18.51;46.11
73455;BME280;61690;51.824;6.306;2023-04-22T07:34:58;100570.38;;;18.47;46.17
73455;BME280;61690;51.824;6.306;2023-04-22T07:37:23;100570.38;;;18.47;46.31
73455;BME280;61690;51.824;6.306;2023-04-22T07:39:49;100568.47;;;18.49;46.26
73455;BME280;61690;51.824;6.306;2023-04-22T07:42:15;100581.00;;;18.46;46.27
73455;BME280;61690;51.824;6.306;2023-04-22T07:44:41;100575.75;;;18.46;45.81
73455;BME280;61690;51.824;6.306;2023-04-22T07:47:06;100572.47;;;18.42;46.27
73455;BME280;61690;51.824;6.306;2023-04-22T07:49:32;100579.56;;;18.41;46.17
73455;BME280;61690;51.824;6.306;2023-04-22T07:51:58;100570.91;;;18.39;46.38
73455;BME280;61690;51.824;6.306;2023-04-22T07:54:23;100573.44;;;18.41;46.38
73455;BME280;61690;51.824;6.306;2023-04-22T07:56:49;100565.41;;;18.42;46.20
73455;BME280;61690;51.824;6.306;2023-04-22T07:59:14;100567.66;;;18.49;45.76
73455;BME280;61690;51.824;6.306;2023-04-22T08:01:39;100572.03;;;18.48;46.32
73455;BME280;61690;51.824;6.306;2023-04-22T08:04:04;100577.84;;;18.40;45.60
73455;BME280;61690;51.824;6.306;2023-04-22T08:06:31;100582.09;;;18.43;45.99
73455;BME280;61690;51.824;6.306;2023-04-22T08:08:56;100581.34;;;18.41;46.27
73455;BME280;61690;51.824;6.306;2023-04-22T08:11:21;100575.94;;;18.42;46.00
73455;BME280;61690;51.824;6.306;2023-04-22T08:13:47;100579.75;;;18.38;46.23
73455;BME280;61690;51.824;6.306;2023-04-22T08:16:12;100582.28;;;18.40;46.03
73455;BME280;61690;51.824;6.306;2023-04-22T08:18:38;100576.38;;;18.36;46.22
73455;BME280;61690;51.824;6.306;2023-04-22T08:21:03;100584.91;;;18.40;46.39
73455;BME280;61690;51.824;6.306;2023-04-22T08:23:29;100585.00;;;18.38;46.36
73455;BME280;61690;51.824;6.306;2023-04-22T08:25:54;100597.25;;;18.39;45.93
73455;BME280;61690;51.824;6.306;2023-04-22T08:28:20;100591.88;;;18.41;46.20
73455;BME280;61690;51.824;6.306;2023-04-22T08:30:51;100584.09;;;18.39;46.39
73455;BME280;61690;51.824;6.306;2023-04-22T08:33:17;100582.38;;;18.38;45.99
73455;BME280;61690;51.824;6.306;2023-04-22T08:35:42;100570.38;;;18.47;45.92
73455;BME280;61690;51.824;6.306;2023-04-22T08:38:08;100549.84;;;18.39;46.06
73455;BME280;61690;51.824;6.306;2023-04-22T08:40:34;100547.41;;;18.49;45.92
73455;BME280;61690;51.824;6.306;2023-04-22T08:42:59;100549.84;;;18.39;45.73
73455;BME280;61690;51.824;6.306;2023-04-22T08:45:25;100549.63;;;18.42;45.90
73455;BME280;61690;51.824;6.306;2023-04-22T08:47:51;100545.22;;;18.43;45.79
73455;BME280;61690;51.824;6.306;2023-04-22T08:50:19;100547.22;;;18.39;46.22
73455;BME280;61690;51.824;6.306;2023-04-22T08:52:46;100534.69;;;18.43;45.88
73455;BME280;61690;51.824;6.306;2023-04-22T08:55:11;100536.59;;;18.41;45.85
73455;BME280;61690;51.824;6.306;2023-04-22T08:57:37;100535.91;;;18.50;45.79
73455;BME280;61690;51.824;6.306;2023-04-22T09:00:05;100528.00;;;18.50;45.39
73455;BME280;61690;51.824;6.306;2023-04-22T09:02:33;100522.63;;;18.52;45.80
73455;BME280;61690;51.824;6.306;2023-04-22T09:05:00;100516.63;;;18.50;45.89
73455;BME280;61690;51.824;6.306;2023-04-22T09:07:27;100521.91;;;18.50;45.44
73455;BME280;61690;51.824;6.306;2023-04-22T09:09:55;100514.97;;;18.49;45.32
73455;BME280;61690;51.824;6.306;2023-04-22T09:12:21;100527.06;;;18.51;45.68
73455;BME280;61690;51.824;6.306;2023-04-22T09:14:46;100525.28;;;18.52;45.80
73455;BME280;61690;51.824;6.306;2023-04-22T09:17:31;100528.63;;;18.54;45.35
73455;BME280;61690;51.824;6.306;2023-04-22T09:19:58;100523.59;;;18.51;45.62
73455;BME280;61690;51.824;6.306;2023-04-22T09:22:26;100520.25;;;18.49;45.40
73455;BME280;61690;51.824;6.306;2023-04-22T09:24:51;100519.44;;;18.59;45.10
73455;BME280;61690;51.824;6.306;2023-04-22T09:27:22;100520.28;;;18.60;45.16
73455;BME280;61690;51.824;6.306;2023-04-22T09:30:09;100521.97;;;18.61;45.58
73455;BME280;61690;51.824;6.306;2023-04-22T09:32:35;100512.53;;;18.58;45.09
73455;BME280;61690;51.824;6.306;2023-04-22T09:35:00;100505.25;;;18.62;45.33
73455;BME280;61690;51.824;6.306;2023-04-22T09:37:26;100507.88;;;18.62;45.37
73455;BME280;61690;51.824;6.306;2023-04-22T09:39:52;100506.47;;;18.69;45.08
73455;BME280;61690;51.824;6.306;2023-04-22T09:42:19;100503.53;;;18.61;45.39
73455;BME280;61690;51.824;6.306;2023-04-22T09:44:49;100495.19;;;18.67;44.90
73455;BME280;61690;51.824;6.306;2023-04-22T09:47:17;100500.28;;;18.57;45.32
73455;BME280;61690;51.824;6.306;2023-04-22T09:49:46;100506.06;;;18.63;45.54
73455;BME280;61690;51.824;6.306;2023-04-22T09:52:20;100514.19;;;18.59;45.31
73455;BME280;61690;51.824;6.306;2023-04-22T09:54:49;100515.00;;;18.60;45.53
73455;BME280;61690;51.824;6.306;2023-04-22T09:57:16;100512.91;;;18.65;45.26
73455;BME280;61690;51.824;6.306;2023-04-22T09:59:42;100511.34;;;18.63;45.58
73455;BME280;61690;51.824;6.306;2023-04-22T10:02:08;100496.66;;;18.71;45.19
73455;BME280;61690;51.824;6.306;2023-04-22T10:04:40;100513.63;;;18.67;45.04
73455;BME280;61690;51.824;6.306;2023-04-22T10:07:06;100495.19;;;18.67;45.58
73455;BME280;61690;51.824;6.306;2023-04-22T10:09:33;100497.94;;;18.66;45.55
73455;BME280;61690;51.824;6.306;2023-04-22T10:11:59;100502.38;;;18.65;45.40
73455;BME280;61690;51.824;6.306;2023-04-22T10:14:26;100506.69;;;18.66;45.71
73455;BME280;61690;51.824;6.306;2023-04-22T10:16:57;100503.94;;;18.68;45.92
73455;BME280;61690;51.824;6.306;2023-04-22T10:19:24;100502.66;;;18.73;45.35
73455;BME280;61690;51.824;6.306;2023-04-22T10:22:00;100500.00;;;18.73;45.94
73455;BME280;61690;51.824;6.306;2023-04-22T10:24:29;100501.09;;;18.71;45.94
73455;BME280;61690;51.824;6.306;2023-04-22T10:26:59;100489.47;;;18.73;45.70
73455;BME280;61690;51.824;6.306;2023-04-22T10:29:40;100485.78;;;18.76;45.64
73455;BME280;61690;51.824;6.306;2023-04-22T10:34:35;100485.56;;;18.79;45.63
73455;BME280;61690;51.824;6.306;2023-04-22T10:37:06;100492.63;;;18.78;45.79
73455;BME280;61690;51.824;6.306;2023-04-22T10:39:32;100494.13;;;18.83;45.80
73455;BME280;61690;51.824;6.306;2023-04-22T10:42:05;100495.19;;;18.80;45.82
73455;BME280;61690;51.824;6.306;2023-04-22T10:44:51;100488.84;;;18.83;45.92
73455;BME280;61690;51.824;6.306;2023-04-22T10:47:24;100486.31;;;18.81;46.36
73455;BME280;61690;51.824;6.306;2023-04-22T10:49:50;100482.53;;;18.85;46.09
73455;BME280;61690;51.824;6.306;2023-04-22T10:52:28;100486.81;;;18.86;45.87
73455;BME280;61690;51.824;6.306;2023-04-22T10:57:19;100487.56;;;18.88;46.12
73455;BME280;61690;51.824;6.306;2023-04-22T10:59:54;100480.38;;;18.90;46.37
73455;BME280;61690;51.824;6.306;2023-04-22T11:02:22;100487.25;;;18.93;46.10
73455;BME280;61690;51.824;6.306;2023-04-22T11:04:48;100494.19;;;18.94;46.36
73455;BME280;61690;51.824;6.306;2023-04-22T11:09:47;100492.25;;;18.96;46.26
73455;BME280;61690;51.824;6.306;2023-04-22T11:15:14;100491.81;;;19.02;46.47
73455;BME280;61690;51.824;6.306;2023-04-22T11:17:47;100489.16;;;19.02;46.30
73455;BME280;61690;51.824;6.306;2023-04-22T11:20:13;100481.78;;;19.07;46.33
73455;BME280;61690;51.824;6.306;2023-04-22T11:22:45;100492.53;;;19.04;46.50
73455;BME280;61690;51.824;6.306;2023-04-22T11:25:11;100493.03;;;19.09;46.22
73455;BME280;61690;51.824;6.306;2023-04-22T11:27:37;100506.00;;;19.12;46.64
73455;BME280;61690;51.824;6.306;2023-04-22T11:32:40;100493.56;;;19.14;46.55
73455;BME280;61690;51.824;6.306;2023-04-22T11:35:11;100496.19;;;19.14;46.49
73455;BME280;61690;51.824;6.306;2023-04-22T11:37:44;100493.31;;;19.17;46.49
73455;BME280;61690;51.824;6.306;2023-04-22T11:40:16;100495.22;;;19.15;46.74
73455;BME280;61690;51.824;6.306;2023-04-22T11:42:43;100501.22;;;19.17;46.55
73455;BME280;61690;51.824;6.306;2023-04-22T11:45:09;100489.84;;;19.17;46.91
73455;BME280;61690;51.824;6.306;2023-04-22T11:47:35;100492.25;;;19.20;46.81
73455;BME280;61690;51.824;6.306;2023-04-22T11:50:03;100485.19;;;19.20;46.70
73455;BME280;61690;51.824;6.306;2023-04-22T11:52:45;100494.78;;;19.22;47.15
73455;BME280;61690;51.824;6.306;2023-04-22T11:55:12;100479.91;;;19.20;46.83
73455;BME280;61690;51.824;6.306;2023-04-22T11:57:38;100469.25;;;19.22;46.93
73455;BME280;61690;51.824;6.306;2023-04-22T12:00:04;100464.81;;;19.23;46.85
73455;BME280;61690;51.824;6.306;2023-04-22T12:02:37;100467.34;;;19.24;46.65
73455;BME280;61690;51.824;6.306;2023-04-22T12:05:14;100465.31;;;19.28;46.51
73455;BME280;61690;51.824;6.306;2023-04-22T12:07:41;100458.34;;;19.27;46.68
73455;BME280;61690;51.824;6.306;2023-04-22T12:10:07;100454.78;;;19.28;46.68
73455;BME280;61690;51.824;6.306;2023-04-22T12:12:32;100447.69;;;19.28;46.79
73455;BME280;61690;51.824;6.306;2023-04-22T12:15:09;100451.28;;;19.27;46.78
73455;BME280;61690;51.824;6.306;2023-04-22T12:17:35;100445.78;;;19.30;46.71
73455;BME280;61690;51.824;6.306;2023-04-22T12:20:00;100444.94;;;19.30;46.68
73455;BME280;61690;51.824;6.306;2023-04-22T12:22:27;100445.44;;;19.35;46.53
73455;BME280;61690;51.824;6.306;2023-04-22T12:24:52;100451.66;;;19.34;46.41
73455;BME280;61690;51.824;6.306;2023-04-22T12:27:18;100449.38;;;19.29;46.81
73455;BME280;61690;51.824;6.306;2023-04-22T12:29:51;100444.69;;;19.33;46.72
73455;BME280;61690;51.824;6.306;2023-04-22T12:32:18;100446.38;;;19.34;46.57
73455;BME280;61690;51.824;6.306;2023-04-22T12:34:43;100444.69;;;19.33;46.69
73455;BME280;61690;51.824;6.306;2023-04-22T12:37:09;100449.75;;;19.36;46.76
73455;BME280;61690;51.824;6.306;2023-04-22T12:39:35;100444.47;;;19.36;46.58
73455;BME280;61690;51.824;6.306;2023-04-22T12:42:01;100456.09;;;19.33;46.88
73455;BME280;61690;51.824;6.306;2023-04-22T12:44:27;100444.34;;;19.37;46.77
73455;BME280;61690;51.824;6.306;2023-04-22T12:46:56;100440.91;;;19.37;46.74
73455;BME280;61690;51.824;6.306;2023-04-22T12:49:21;100445.31;;;19.36;46.99
73455;BME280;61690;51.824;6.306;2023-04-22T12:51:47;100447.00;;;19.37;46.82
73455;BME280;61690;51.824;6.306;2023-04-22T12:54:12;100447.84;;;19.38;46.44
73455;BME280;61690;51.824;6.306;2023-04-22T12:56:37;100453.09;;;19.38;46.74
73455;BME280;61690;51.824;6.306;2023-04-22T12:59:03;100453.09;;;19.38;47.42
73455;BME280;61690;51.824;6.306;2023-04-22T13:01:29;100450.00;;;19.44;47.17
73455;BME280;61690;51.824;6.306;2023-04-22T13:03:55;100431.78;;;19.41;47.77